Time;durP1;ratioP1;P1;durP2;ratioP2;P2;SDS_P1;SDS_P2;PMS_P1;PMS_P2;Temp;Humidity;BMP_temperature;BMP_pressure;BME280_temperature;BME280_humidity;BME280_pressure;Samples;Min_cycle;Max_cycle;Signal;HPM_P1;HPM_P2
2022/09/05 00:02:19;;;;;;;4.50;3.33;;;;;;;19.63;68.32;97676.84;4911633;29;20292;-74
2022/09/05 00:04:58;;;;;;;4.10;3.70;;;;;;;19.43;67.80;97637.06;4911216;29;20852;-74
2022/09/05 00:07:33;;;;;;;5.07;3.53;;;;;;;19.86;67.80;97676.03;4911315;29;20190;-76
2022/09/05 00:10:30;;;;;;;5.27;3.53;;;;;;;19.95;67.03;97678.81;4910611;29;20644;-76
2022/09/05 00:13:25;;;;;;;4.90;3.40;;;;;;;20.01;66.67;97681.00;4909700;29;20259;-74
2022/09/05 00:16:10;;;;;;;5.27;3.90;;;;;;;19.97;66.85;97679.56;4911032;29;20207;-74
2022/09/05 00:19:14;;;;;;;4.57;4.00;;;;;;;19.85;67.08;97685.72;4910239;29;20194;-75
2022/09/05 00:22:31;;;;;;;6.10;3.70;;;;;;;19.77;67.82;97684.56;4910879;29;20253;-80
2022/09/05 00:25:40;;;;;;;5.50;3.80;;;;;;;19.70;67.85;97673.66;4910752;29;20197;-74
2022/09/05 00:28:25;;;;;;;4.27;3.73;;;;;;;19.77;67.95;97667.03;4911127;29;20325;-74
2022/09/05 00:31:12;;;;;;;4.27;3.70;;;;;;;19.85;67.44;97669.94;4910953;29;20249;-74
2022/09/05 00:34:10;;;;;;;3.87;3.30;;;;;;;19.92;67.61;97670.31;4910423;29;20283;-75
2022/09/05 00:36:42;;;;;;;6.47;4.23;;;;;;;19.76;67.81;97669.78;4893944;29;20210;-78
2022/09/05 00:39:30;;;;;;;4.63;3.97;;;;;;;19.78;68.06;97671.34;4893855;29;20260;-78
2022/09/05 00:42:06;;;;;;;5.60;3.93;;;;;;;19.76;68.17;97675.03;4910529;29;20193;-78
2022/09/05 00:44:46;;;;;;;5.10;3.73;;;;;;;19.69;67.85;97674.63;4911060;29;20201;-78
2022/09/05 00:47:26;;;;;;;8.50;4.73;;;;;;;19.27;69.60;97673.22;4910153;29;20277;-79
2022/09/05 00:50:24;;;;;;;4.90;4.40;;;;;;;19.24;70.25;97662.09;4910623;29;20720;-78
2022/09/05 00:52:56;;;;;;;5.63;3.93;;;;;;;19.34;69.42;97664.00;4910837;29;20221;-78
2022/09/05 00:56:15;;;;;;;6.43;4.50;;;;;;;19.26;69.57;97682.06;4894668;29;20688;-77
2022/09/05 00:59:06;;;;;;;4.80;4.20;;;;;;;19.19;70.09;97678.19;4843065;29;20273;-75
2022/09/05 01:01:52;;;;;;;5.97;3.77;;;;;;;19.16;69.90;97670.53;4910758;29;20252;-79
2022/09/05 01:04:33;;;;;;;6.20;3.87;;;;;;;19.13;70.02;97675.97;4910243;29;20293;-78
2022/09/05 01:07:25;;;;;;;4.30;3.90;;;;;;;18.74;71.83;97668.22;4910072;29;20197;-77
2022/09/05 01:10:02;;;;;;;4.93;4.17;;;;;;;18.69;71.58;97663.28;4910632;29;20247;-80
2022/09/05 01:12:48;;;;;;;6.87;4.47;;;;;;;18.73;71.47;97666.56;4893029;29;20616;-79
2022/09/05 01:15:32;;;;;;;7.80;4.13;;;;;;;19.00;71.35;97664.66;4893673;29;20205;-79
2022/09/05 01:18:30;;;;;;;5.63;4.67;;;;;;;19.14;71.07;97669.81;4910341;29;20593;-77
2022/09/05 01:21:13;;;;;;;7.60;4.40;;;;;;;19.27;70.20;97673.22;4910240;29;20201;-77
2022/09/05 01:23:51;;;;;;;4.43;4.03;;;;;;;19.39;69.79;97669.75;4893759;29;20268;-76
2022/09/05 01:26:40;;;;;;;5.40;3.67;;;;;;;19.47;68.96;97663.97;4892958;29;20234;-75
2022/09/05 01:29:18;;;;;;;4.60;4.13;;;;;;;19.57;68.54;97653.63;4909683;29;20249;-79
2022/09/05 01:32:19;;;;;;;5.97;4.50;;;;;;;19.57;68.76;97664.16;4911096;29;20194;-77
2022/09/05 01:34:56;;;;;;;7.10;4.43;;;;;;;19.28;69.65;97651.28;4914984;29;20201;-74
2022/09/05 01:37:49;;;;;;;4.40;4.00;;;;;;;19.31;69.38;97655.44;4917404;29;20659;-77
2022/09/05 01:40:43;;;;;;;4.90;4.07;;;;;;;19.29;69.50;97644.22;4910703;29;20258;-77
2022/09/05 01:43:49;;;;;;;6.13;4.07;;;;;;;19.21;69.85;97642.16;4909933;29;20221;-78
2022/09/05 01:46:40;;;;;;;4.50;4.07;;;;;;;19.28;69.36;97642.56;4893162;29;20640;-74
2022/09/05 01:49:23;;;;;;;4.63;4.00;;;;;;;18.96;70.37;97644.00;4910256;29;20621;-75
2022/09/05 01:52:18;;;;;;;7.00;3.87;;;;;;;18.68;71.17;97631.91;4909733;29;20961;-74
2022/09/05 01:55:04;;;;;;;3.90;3.40;;;;;;;18.64;71.38;97635.69;4909976;29;20208;-77
2022/09/05 01:57:39;;;;;;;6.47;4.27;;;;;;;18.61;71.67;97631.50;4910868;29;20680;-75
2022/09/05 02:00:09;;;;;;;6.63;5.63;;;;;;;18.61;72.08;97631.50;4909706;29;20202;-78
2022/09/05 02:03:12;;;;;;;6.87;4.07;;;;;;;18.59;71.50;97632.53;4910580;29;20196;-77
2022/09/05 02:05:52;;;;;;;4.57;3.90;;;;;;;18.60;71.82;97642.09;4910483;29;20202;-78
2022/09/05 02:08:41;;;;;;;6.37;3.80;;;;;;;18.31;72.86;97645.81;4909649;29;20332;-77
2022/09/05 02:11:10;;;;;;;6.10;4.20;;;;;;;18.00;73.94;97651.41;4910717;29;20244;-79
2022/09/05 02:13:49;;;;;;;6.23;4.50;;;;;;;18.03;73.83;97653.84;4908524;29;20205;-79
2022/09/05 02:16:38;;;;;;;4.67;4.07;;;;;;;18.12;73.59;97642.72;4908227;29;20637;-77
2022/09/05 02:19:16;;;;;;;8.33;4.00;;;;;;;18.14;72.91;97657.41;4912731;29;20234;-78
2022/09/05 02:22:06;;;;;;;5.17;3.93;;;;;;;18.14;73.70;97654.81;4911499;29;20189;-80
2022/09/05 02:24:42;;;;;;;6.67;4.13;;;;;;;18.42;72.58;97649.38;4913084;29;20194;-79
2022/09/05 02:27:22;;;;;;;5.57;4.43;;;;;;;18.55;71.87;97649.44;4913076;29;20256;-79
2022/09/05 02:30:15;;;;;;;5.43;4.60;;;;;;;18.42;71.85;97651.19;4912439;29;20237;-80
2022/09/05 02:32:55;;;;;;;5.93;4.70;;;;;;;18.28;72.83;97636.38;4913395;29;20192;-78
2022/09/05 02:35:34;;;;;;;5.33;4.20;;;;;;;18.35;72.74;97640.25;4911724;29;20629;-77
2022/09/05 02:38:05;;;;;;;5.67;4.37;;;;;;;18.56;72.01;97643.25;4911487;29;20248;-77
2022/09/05 02:40:55;;;;;;;7.87;4.27;;;;;;;18.55;72.12;97646.81;4913538;29;20193;-77
2022/09/05 02:43:50;;;;;;;4.73;4.13;;;;;;;18.19;72.99;97644.00;4912478;29;20287;-78
2022/09/05 02:46:49;;;;;;;5.20;4.17;;;;;;;18.16;73.54;97644.19;4912579;29;20221;-79
2022/09/05 02:49:27;;;;;;;4.67;3.83;;;;;;;18.25;72.84;97639.19;4913066;29;20363;-76
2022/09/05 02:52:18;;;;;;;6.80;4.57;;;;;;;18.39;72.98;97640.88;4911074;29;20249;-73
2022/09/05 02:55:16;;;;;;;5.37;4.40;;;;;;;18.38;72.65;97636.59;4912586;29;20189;-73
2022/09/05 02:58:38;;;;;;;5.20;3.97;;;;;;;18.56;71.95;97645.88;4913131;29;20184;-74
2022/09/05 03:01:43;;;;;;;8.23;4.10;;;;;;;18.63;71.39;97647.13;4872665;29;20319;-74
2022/09/05 03:04:46;;;;;;;6.33;4.60;;;;;;;18.86;70.65;97651.63;4912378;29;20206;-78
2022/09/05 03:07:39;;;;;;;6.13;4.07;;;;;;;18.77;70.85;97644.41;4893520;29;20207;-78
2022/09/05 03:10:40;;;;;;;5.77;4.50;;;;;;;18.71;71.18;97647.47;4911333;29;20733;-76
2022/09/05 03:13:48;;;;;;;7.27;5.50;;;;;;;18.59;71.43;97648.28;4910542;29;20208;-79
2022/09/05 03:16:54;;;;;;;5.20;3.63;;;;;;;18.51;71.78;97645.34;4912281;29;20218;-73
2022/09/05 03:19:43;;;;;;;5.13;3.47;;;;;;;18.51;71.61;97646.19;4912632;29;20200;-73
2022/09/05 03:22:36;;;;;;;15.20;4.67;;;;;;;18.37;71.84;97661.13;4910465;29;20775;-73
2022/09/05 03:25:21;;;;;;;4.90;4.23;;;;;;;17.93;73.59;97656.19;4910619;29;20619;-73
2022/09/05 03:28:07;;;;;;;6.20;3.93;;;;;;;17.49;74.41;97659.09;4910770;29;20200;-76
2022/09/05 03:31:10;;;;;;;4.97;4.30;;;;;;;17.15;77.25;97656.84;4910890;29;20244;-75
2022/09/05 03:33:57;;;;;;;4.60;3.90;;;;;;;17.34;76.74;97657.38;4871979;29;20288;-73
2022/09/05 03:37:01;;;;;;;9.37;5.47;;;;;;;17.47;76.21;97660.06;4902715;29;20201;-73
2022/09/05 03:39:33;;;;;;;8.97;5.70;;;;;;;17.69;75.51;97663.88;4847247;29;20643;-75
2022/09/05 03:42:00;;;;;;;8.07;4.83;;;;;;;17.93;74.74;97676.34;4910393;29;20556;-72
2022/09/05 03:44:47;;;;;;;6.57;5.10;;;;;;;18.04;73.53;97681.72;4910178;29;20661;-73
2022/09/05 03:47:14;;;;;;;8.07;5.37;;;;;;;17.73;74.89;97683.72;4911433;29;20757;-75
2022/09/05 03:50:19;;;;;;;6.80;4.93;;;;;;;17.98;74.46;97676.88;4912175;29;20283;-73
2022/09/05 03:53:24;;;;;;;7.60;5.33;;;;;;;18.24;73.60;97695.19;4911961;29;20183;-74
2022/09/05 03:56:25;;;;;;;9.10;4.93;;;;;;;18.35;72.48;97697.13;4910904;29;20195;-74
2022/09/05 03:59:25;;;;;;;7.57;5.97;;;;;;;18.34;72.72;97690.19;4911930;29;20209;-74
2022/09/05 04:02:03;;;;;;;14.50;5.27;;;;;;;18.62;71.74;97690.06;4911443;29;20197;-73
2022/09/05 04:05:00;;;;;;;6.33;4.43;;;;;;;18.71;70.47;97692.06;4911402;29;20180;-74
2022/09/05 04:07:58;;;;;;;4.80;3.80;;;;;;;18.74;69.87;97689.22;4910756;29;20214;-77
2022/09/05 04:11:02;;;;;;;4.97;4.00;;;;;;;18.58;69.94;97696.47;4911273;29;20724;-80
2022/09/05 04:14:05;;;;;;;7.20;4.60;;;;;;;18.77;69.86;97696.91;4909207;29;20232;-78
2022/09/05 04:16:46;;;;;;;8.00;4.77;;;;;;;18.99;69.32;97702.34;4870934;29;20201;-75
2022/09/05 04:19:20;;;;;;;8.70;4.80;;;;;;;18.91;68.97;97706.44;4907263;29;20240;-74
2022/09/05 04:22:27;;;;;;;7.40;4.87;;;;;;;18.88;69.14;97710.13;4910472;29;20277;-75
2022/09/05 04:25:26;;;;;;;5.60;4.47;;;;;;;18.93;68.43;97717.69;4911318;29;20228;-75
2022/09/05 04:28:31;;;;;;;5.60;4.40;;;;;;;18.91;69.03;97709.91;4911025;29;20233;-77
2022/09/05 04:31:04;;;;;;;5.80;4.50;;;;;;;18.96;68.85;97715.69;4910005;29;20240;-75
2022/09/05 04:33:45;;;;;;;5.40;4.83;;;;;;;19.25;67.36;97722.41;4910864;29;20226;-75
2022/09/05 04:36:32;;;;;;;5.77;4.43;;;;;;;18.79;68.51;97723.88;4893426;29;20205;-74
2022/09/05 04:39:08;;;;;;;8.47;5.90;;;;;;;18.55;69.67;97731.59;4910388;29;20639;-74
2022/09/05 04:41:46;;;;;;;6.10;4.43;;;;;;;18.79;69.41;97729.13;4910107;29;20250;-75
2022/09/05 04:44:17;;;;;;;6.27;4.43;;;;;;;18.72;69.02;97732.25;4893253;29;20253;-75
2022/09/05 04:46:52;;;;;;;6.93;5.10;;;;;;;18.37;70.30;97726.69;4910686;29;20194;-78
2022/09/05 04:49:31;;;;;;;6.80;4.37;;;;;;;17.96;71.91;97737.25;4893586;29;20319;-77
2022/09/05 04:52:16;;;;;;;9.83;4.60;;;;;;;17.88;72.11;97731.66;4910083;29;20249;-75
2022/09/05 04:55:13;;;;;;;6.67;4.70;;;;;;;18.04;72.08;97747.25;4910515;29;20203;-74
2022/09/05 04:57:55;;;;;;;6.63;4.30;;;;;;;18.14;71.48;97753.56;4910398;29;20311;-78
2022/09/05 05:00:37;;;;;;;5.43;4.40;;;;;;;18.42;70.28;97751.69;4910287;29;20197;-74
2022/09/05 05:03:28;;;;;;;7.37;4.90;;;;;;;18.74;69.70;97754.84;4910500;29;20187;-75
2022/09/05 05:06:30;;;;;;;8.57;5.07;;;;;;;19.15;67.88;97755.50;4910375;29;20198;-74
2022/09/05 05:09:32;;;;;;;7.23;4.50;;;;;;;19.82;66.27;97762.19;4910068;29;20202;-75
2022/09/05 05:12:07;;;;;;;8.43;4.00;;;;;;;20.19;64.99;97755.09;4910678;29;20194;-79
2022/09/05 05:15:00;;;;;;;7.10;4.90;;;;;;;20.71;63.54;97760.84;4910042;29;20197;-75
2022/09/05 05:17:56;;;;;;;6.50;4.97;;;;;;;20.98;62.10;97764.03;4892563;29;20199;-78
2022/09/05 05:20:55;;;;;;;7.27;4.53;;;;;;;21.26;61.15;97761.97;4910351;29;20202;-76
2022/09/05 05:23:50;;;;;;;7.20;4.50;;;;;;;21.38;60.66;97755.75;4910351;29;20209;-76
2022/09/05 05:26:53;;;;;;;6.53;4.57;;;;;;;21.48;59.47;97759.34;4907506;29;20883;-78
2022/09/05 05:29:47;;;;;;;7.33;4.10;;;;;;;21.54;59.49;97769.41;4874250;29;20273;-76
2022/09/05 05:32:18;;;;;;;5.17;4.67;;;;;;;21.27;59.88;97743.41;4911856;29;20195;-79
2022/09/05 05:35:10;;;;;;;5.50;4.00;;;;;;;21.54;59.62;97766.75;4928529;29;20202;-79
2022/09/05 05:38:13;;;;;;;6.27;4.77;;;;;;;21.33;60.40;97779.00;4929624;29;20190;-76
2022/09/05 05:41:05;;;;;;;5.90;4.67;;;;;;;20.82;62.01;97786.38;4911603;29;20228;-78
2022/09/05 05:43:37;;;;;;;8.50;4.73;;;;;;;20.69;62.50;97762.75;4928218;29;20266;-76
2022/09/05 05:46:22;;;;;;;9.37;4.60;;;;;;;21.30;61.62;97773.94;4929337;29;20204;-79
2022/09/05 05:48:52;;;;;;;5.87;4.17;;;;;;;21.51;60.16;97769.66;4911270;29;20194;-75
2022/09/05 05:51:29;;;;;;;6.77;5.20;;;;;;;21.12;61.66;97778.00;4911232;29;20233;-76
2022/09/05 05:54:48;;;;;;;6.70;4.43;;;;;;;21.02;61.76;97769.94;4931817;29;20182;-79
2022/09/05 05:57:47;;;;;;;5.80;4.03;;;;;;;21.42;59.82;97773.84;4932039;29;20639;-79
2022/09/05 06:00:23;;;;;;;7.00;4.03;;;;;;;21.76;59.49;97779.97;4899627;29;20235;-76
2022/09/05 06:03:06;;;;;;;8.87;4.33;;;;;;;22.21;57.72;97778.13;4934445;29;20197;-76
2022/09/05 06:06:11;;;;;;;4.73;4.23;;;;;;;22.15;57.81;97778.63;4914938;29;20218;-75
2022/09/05 06:08:56;;;;;;;5.33;4.17;;;;;;;22.43;55.27;97768.34;4931911;29;20272;-75
2022/09/05 06:12:20;;;;;;;8.53;6.50;;;;;;;22.52;53.10;97774.66;4914991;29;20283;-75
2022/09/05 06:15:28;;;;;;;4.73;3.90;;;;;;;22.51;53.11;97768.53;4917809;29;20207;-75
2022/09/05 06:18:23;;;;;;;4.50;3.67;;;;;;;22.70;52.09;97775.81;4931788;29;20504;-76
2022/09/05 06:21:18;;;;;;;7.00;4.17;;;;;;;22.73;53.37;97774.72;4932061;29;20248;-75
2022/09/05 06:24:43;;;;;;;5.07;3.17;;;;;;;22.56;51.03;97774.31;4931697;29;20195;-76
2022/09/05 06:27:18;;;;;;;3.10;2.80;;;;;;;22.53;50.43;97769.25;4931263;29;20202;-75
2022/09/05 06:30:04;;;;;;;7.67;3.27;;;;;;;22.64;50.53;97777.19;4911432;29;20319;-74
2022/09/05 06:32:52;;;;;;;2.63;2.30;;;;;;;21.97;51.13;97777.47;4912368;29;20197;-76
2022/09/05 06:35:45;;;;;;;3.00;2.70;;;;;;;22.28;51.69;97774.00;4911864;29;20198;-75
2022/09/05 06:38:51;;;;;;;5.20;2.80;;;;;;;22.59;50.20;97771.41;4910902;29;20189;-74
2022/09/05 06:41:27;;;;;;;3.63;2.43;;;;;;;21.99;50.18;97736.78;4910882;29;20688;-75
2022/09/05 06:43:57;;;;;;;2.63;2.27;;;;;;;22.44;49.76;97767.34;4909870;29;20237;-74
2022/09/05 06:46:33;;;;;;;3.83;2.40;;;;;;;22.51;50.04;97765.06;4912423;29;20197;-75
2022/09/05 06:49:43;;;;;;;3.43;2.50;;;;;;;22.64;49.69;97774.53;4910829;29;20209;-76
2022/09/05 06:53:14;;;;;;;2.80;2.50;;;;;;;22.62;50.33;97778.25;4911985;29;20280;-75
2022/09/05 06:55:56;;;;;;;5.67;3.60;;;;;;;22.92;49.12;97785.44;4844168;29;20724;-75
2022/09/05 06:58:48;;;;;;;3.23;2.50;;;;;;;22.87;49.20;97782.34;4911772;29;20673;-77
2022/09/05 07:01:25;;;;;;;3.10;2.63;;;;;;;22.92;48.85;97785.44;4911511;29;20278;-75
2022/09/05 07:04:24;;;;;;;7.47;3.33;;;;;;;23.00;48.75;97777.72;4911225;29;20206;-79
2022/09/05 07:07:43;;;;;;;4.07;3.00;;;;;;;23.08;48.37;97770.00;4912105;29;20189;-75
2022/09/05 07:10:31;;;;;;;6.57;2.73;;;;;;;23.34;47.73;97781.84;4911169;29;20337;-75
2022/09/05 07:13:35;;;;;;;4.43;2.40;;;;;;;23.46;47.34;97783.44;4911618;29;20283;-74
2022/09/05 07:16:23;;;;;;;2.50;2.17;;;;;;;23.40;46.89;97784.81;4911977;29;20211;-74
2022/09/05 07:19:26;;;;;;;3.80;1.90;;;;;;;23.39;46.27;97783.13;4911259;29;20222;-76
2022/09/05 07:21:59;;;;;;;2.73;2.37;;;;;;;23.57;45.89;97783.38;4911381;29;20254;-77
2022/09/05 07:24:30;;;;;;;3.63;1.80;;;;;;;23.34;45.60;97782.69;4911654;29;20663;-79
2022/09/05 07:27:45;;;;;;;3.23;2.00;;;;;;;23.52;46.19;97793.50;4911035;29;20187;-79
2022/09/05 07:30:33;;;;;;;3.20;2.33;;;;;;;23.73;46.15;97788.16;4911066;29;20725;-79
2022/09/05 07:33:01;;;;;;;2.33;1.83;;;;;;;23.51;45.79;97789.19;4910410;29;20259;-76
2022/09/05 07:35:35;;;;;;;4.03;2.87;;;;;;;23.29;46.22;97791.94;4910972;29;20194;-78
2022/09/05 07:38:26;;;;;;;2.60;1.87;;;;;;;23.34;47.07;97782.69;4909920;29;20691;-77
2022/09/05 07:41:19;;;;;;;4.17;2.37;;;;;;;23.56;45.52;97786.97;4910915;29;20664;-79
2022/09/05 07:43:53;;;;;;;3.20;2.00;;;;;;;23.59;45.08;97775.28;4910536;29;20226;-76
2022/09/05 07:46:31;;;;;;;2.60;2.40;;;;;;;23.50;46.08;97784.84;4910109;29;20207;-77
2022/09/05 07:49:15;;;;;;;4.40;3.30;;;;;;;23.65;45.28;97775.59;4909189;29;20248;-76
2022/09/05 07:51:58;;;;;;;5.23;2.97;;;;;;;23.82;45.71;97769.66;4910845;29;20242;-78
2022/09/05 07:54:50;;;;;;;4.40;2.83;;;;;;;24.13;44.91;97767.88;4910975;29;20202;-78
2022/09/05 07:57:46;;;;;;;5.77;2.40;;;;;;;24.20;44.88;97764.53;4910589;29;20307;-80
2022/09/05 08:00:23;;;;;;;4.03;2.47;;;;;;;24.23;43.76;97772.19;4911312;29;20251;-79
2022/09/05 08:03:13;;;;;;;3.53;2.87;;;;;;;24.15;44.61;97761.44;4909329;29;20695;-76
2022/09/05 08:05:47;;;;;;;3.27;2.50;;;;;;;24.28;44.07;97765.66;4910569;29;20699;-77
2022/09/05 08:08:22;;;;;;;5.57;3.07;;;;;;;24.39;43.88;97761.06;4911618;29;20200;-75
2022/09/05 08:10:57;;;;;;;4.27;2.53;;;;;;;24.75;43.65;97773.66;4908726;29;20310;-76
2022/09/05 08:13:55;;;;;;;5.53;2.50;;;;;;;24.64;43.40;97763.19;4911778;29;20189;-78
2022/09/05 08:16:42;;;;;;;2.77;2.00;;;;;;;24.69;42.92;97762.78;4910976;29;20324;-80
2022/09/05 08:19:39;;;;;;;3.27;2.10;;;;;;;24.80;43.04;97766.13;4910112;29;20688;-76
2022/09/05 08:22:15;;;;;;;3.20;1.70;;;;;;;24.43;43.42;97761.63;4910771;29;20193;-80
2022/09/05 08:24:58;;;;;;;4.07;3.20;;;;;;;24.74;42.07;97760.56;4893485;29;20200;-76
2022/09/05 08:27:44;;;;;;;5.73;4.07;;;;;;;24.26;43.33;97755.19;4892403;29;20584;-80
2022/09/05 08:30:13;;;;;;;3.97;2.77;;;;;;;24.51;42.68;97759.13;4908665;29;20309;-76
2022/09/05 08:33:23;;;;;;;7.67;4.97;;;;;;;24.69;42.36;97760.94;4908401;29;20652;-76
2022/09/05 08:36:08;;;;;;;11.40;6.00;;;;;;;24.54;42.70;97758.84;4909719;29;20188;-76
2022/09/05 08:38:38;;;;;;;2.30;2.10;;;;;;;24.55;42.97;97756.06;4909089;29;20192;-76
2022/09/05 08:41:35;;;;;;;2.53;2.17;;;;;;;24.46;42.08;97748.94;4909494;29;20204;-77
2022/09/05 08:44:34;;;;;;;2.17;1.97;;;;;;;24.43;42.43;97756.31;4909118;29;20199;-78
2022/09/05 08:47:50;;;;;;;5.37;2.80;;;;;;;24.74;41.65;97750.81;4910088;29;20250;-77
2022/09/05 08:50:48;;;;;;;2.80;2.40;;;;;;;24.98;41.73;97753.00;4909544;29;20267;-78
2022/09/05 08:53:36;;;;;;;3.30;2.57;;;;;;;25.19;41.29;97752.81;4909424;29;20583;-80
2022/09/05 08:56:23;;;;;;;3.87;1.90;;;;;;;24.97;40.85;97752.19;4909844;29;20238;-77
2022/09/05 08:58:53;;;;;;;5.33;2.37;;;;;;;25.10;40.91;97751.84;4908481;29;20288;-77
2022/09/05 09:02:12;;;;;;;2.00;1.80;;;;;;;25.27;40.44;97758.22;4909676;29;20251;-79
2022/09/05 09:05:14;;;;;;;3.80;2.30;;;;;;;25.37;40.58;97754.56;4901552;29;20316;-79
2022/09/05 09:08:12;;;;;;;4.40;2.80;;;;;;;25.41;40.13;97755.19;4908351;29;20215;-76
2022/09/05 09:10:59;;;;;;;3.80;2.70;;;;;;;25.36;39.84;97744.97;4907558;29;20215;-75
2022/09/05 09:13:51;;;;;;;4.73;2.90;;;;;;;25.40;40.04;97751.66;4909890;29;20228;-77
2022/09/05 09:16:43;;;;;;;4.33;2.67;;;;;;;24.87;40.92;97750.50;4907878;29;20717;-79
2022/09/05 09:19:22;;;;;;;1.67;1.50;;;;;;;24.50;41.46;97715.94;4909544;29;20201;-79
2022/09/05 09:22:26;;;;;;;3.57;2.40;;;;;;;24.60;41.20;97755.66;4909334;29;20197;-78
2022/09/05 09:25:19;;;;;;;2.17;1.97;;;;;;;24.47;41.47;97757.72;4912234;29;20709;-77
2022/09/05 09:28:07;;;;;;;3.73;1.90;;;;;;;24.36;41.37;97752.56;4908599;29;20202;-80
2022/09/05 09:31:09;;;;;;;2.37;2.03;;;;;;;24.33;42.00;97744.88;4913634;29;20226;-78
2022/09/05 09:33:45;;;;;;;2.90;1.87;;;;;;;24.07;43.30;97747.22;4896513;29;20203;-76
2022/09/05 09:36:43;;;;;;;2.93;2.20;;;;;;;24.33;42.35;97744.88;4913059;29;20266;-79
2022/09/05 09:40:12;;;;;;;2.30;1.73;;;;;;;24.69;41.43;97755.63;4913735;29;20191;-76
2022/09/05 09:43:26;;;;;;;2.40;1.47;;;;;;;24.75;41.85;97755.09;4873997;29;20295;-77
2022/09/05 09:46:33;;;;;;;4.10;2.00;;;;;;;25.12;41.52;97752.56;4874353;29;20199;-80
2022/09/05 09:49:31;;;;;;;4.23;2.80;;;;;;;25.41;40.21;97750.69;4858086;29;20598;-79
2022/09/05 09:52:22;;;;;;;2.80;2.23;;;;;;;25.66;40.33;97749.19;4804985;29;20820;-77
2022/09/05 09:54:55;;;;;;;5.17;2.50;;;;;;;25.79;40.06;97750.56;4817670;29;20204;-75
2022/09/05 09:58:00;;;;;;;4.37;2.40;;;;;;;25.93;39.05;97751.03;4802423;29;20217;-78
2022/09/05 10:01:10;;;;;;;5.87;3.30;;;;;;;25.45;39.53;97749.41;4788575;29;20648;-76
2022/09/05 10:04:35;;;;;;;3.57;2.27;;;;;;;25.58;39.31;97744.63;4800008;29;20228;-76
2022/09/05 10:07:52;;;;;;;3.63;2.37;;;;;;;25.03;40.56;97748.09;4817920;29;20231;-77
2022/09/05 10:10:42;;;;;;;1.73;1.50;;;;;;;24.42;41.32;97744.88;4817918;29;20727;-79
2022/09/05 10:14:05;;;;;;;1.70;1.60;;;;;;;24.29;42.35;97740.84;4817755;29;20245;-81
2022/09/05 10:17:06;;;;;;;2.10;1.10;;;;;;;24.27;40.93;97737.50;4839009;29;20208;-77
2022/09/05 10:20:11;;;;;;;2.90;1.93;;;;;;;24.68;40.67;97745.19;4854463;29;20732;-77
2022/09/05 10:23:18;;;;;;;1.73;1.23;;;;;;;24.76;39.43;97737.41;4855020;29;20206;-77
2022/09/05 10:26:36;;;;;;;1.60;1.50;;;;;;;25.09;39.07;97739.59;4839436;29;20282;-76
2022/09/05 10:29:12;;;;;;;1.73;1.63;;;;;;;25.18;38.76;97732.59;4878757;29;20238;-79
2022/09/05 10:32:12;;;;;;;1.90;1.10;;;;;;;24.04;39.58;97735.09;4916920;29;20224;-79
2022/09/05 10:35:13;;;;;;;2.60;1.67;;;;;;;24.18;41.46;97729.41;4914181;29;20308;-78
2022/09/05 10:38:12;;;;;;;1.43;1.20;;;;;;;24.76;40.84;97719.69;4931230;29;20202;-81
2022/09/05 10:40:44;;;;;;;2.50;1.30;;;;;;;24.99;40.79;97720.22;4914229;29;20198;-79
2022/09/05 10:43:38;;;;;;;4.53;1.40;;;;;;;25.07;40.35;97723.00;4914772;29;20520;-80
2022/09/05 10:46:48;;;;;;;13.10;2.27;;;;;;;25.07;40.76;97712.38;4913665;29;20198;-76
2022/09/05 10:49:24;;;;;;;2.03;1.67;;;;;;;25.40;40.30;97721.63;4905884;29;20626;-76
2022/09/05 10:52:08;;;;;;;1.80;1.60;;;;;;;24.95;40.62;97721.47;4914177;29;20310;-78
2022/09/05 10:55:00;;;;;;;2.73;1.53;;;;;;;24.73;40.56;97724.41;4930482;29;20204;-75
2022/09/05 10:58:03;;;;;;;3.03;1.77;;;;;;;24.63;41.38;97726.22;4913580;29;20192;-75
2022/09/05 11:00:46;;;;;;;4.93;2.30;;;;;;;24.88;42.11;97728.31;4931492;29;20659;-80
2022/09/05 11:03:50;;;;;;;3.00;2.50;;;;;;;25.10;41.89;97724.53;4913722;29;20195;-81
2022/09/05 11:06:24;;;;;;;6.83;3.77;;;;;;;25.01;41.53;97718.25;4930668;29;20192;-81
2022/09/05 11:09:08;;;;;;;3.90;2.30;;;;;;;24.57;42.27;97713.53;4913617;29;20647;-80
2022/09/05 11:11:44;;;;;;;5.93;2.33;;;;;;;24.70;41.08;97703.50;4930417;29;20226;-79
2022/09/05 11:14:33;;;;;;;2.87;2.53;;;;;;;24.84;41.22;97711.88;4913735;29;20684;-80
2022/09/05 11:17:27;;;;;;;3.13;2.70;;;;;;;24.79;40.91;97718.59;4913408;29;20200;-81
2022/09/05 11:20:16;;;;;;;5.97;2.97;;;;;;;24.55;40.69;97720.78;4930212;29;20212;-77
2022/09/05 11:23:19;;;;;;;4.93;3.33;;;;;;;24.59;41.03;97709.78;4916272;29;20365;-76
2022/09/05 11:25:57;;;;;;;4.23;2.77;;;;;;;24.84;40.79;97718.97;4930731;29;20228;-78
2022/09/05 11:28:43;;;;;;;5.10;3.13;;;;;;;25.05;40.67;97695.78;4928701;29;20200;-75
2022/09/05 11:31:58;;;;;;;3.10;2.47;;;;;;;25.08;40.73;97705.28;4911441;29;20229;-77
2022/09/05 11:35:36;;;;;;;4.50;2.43;;;;;;;24.94;41.14;97719.78;4910450;29;20196;-75
2022/09/05 11:38:42;;;;;;;3.17;2.20;;;;;;;24.49;41.46;97718.69;4895425;29;20291;-74
2022/09/05 11:41:37;;;;;;;8.27;3.53;;;;;;;24.37;41.87;97710.06;4909354;29;20277;-76
2022/09/05 11:44:20;;;;;;;4.30;2.90;;;;;;;24.53;42.14;97709.50;4894356;29;20223;-75
2022/09/05 11:47:12;;;;;;;6.27;3.03;;;;;;;24.52;40.99;97707.84;4909332;29;20200;-75
2022/09/05 11:50:33;;;;;;;3.40;2.57;;;;;;;24.75;40.35;97702.13;4910736;29;20189;-81
2022/09/05 11:53:03;;;;;;;2.13;1.77;;;;;;;24.91;40.23;97709.50;4910888;29;20593;-75
2022/09/05 11:56:02;;;;;;;3.40;2.43;;;;;;;25.14;40.94;97700.25;4909529;29;20199;-81
2022/09/05 11:58:58;;;;;;;7.33;3.30;;;;;;;25.41;40.68;97699.47;4908910;29;20511;-76
2022/09/05 12:01:58;;;;;;;3.77;1.53;;;;;;;25.41;41.57;97705.59;4890263;29;20656;-77
2022/09/05 12:04:48;;;;;;;1.53;1.40;;;;;;;24.94;41.76;97703.91;4910994;29;20199;-75
2022/09/05 12:07:56;;;;;;;2.77;1.47;;;;;;;24.84;41.02;97708.38;4910414;29;20189;-81
2022/09/05 12:11:04;;;;;;;1.47;1.37;;;;;;;24.45;41.20;97698.75;4909348;29;20208;-80
2022/09/05 12:13:37;;;;;;;3.10;1.90;;;;;;;24.49;42.07;97692.22;4910990;29;20581;-79
2022/09/05 12:16:28;;;;;;;1.43;1.33;;;;;;;24.79;40.95;97694.75;4877880;29;20287;-77
2022/09/05 12:19:11;;;;;;;1.60;1.50;;;;;;;24.72;41.25;97689.13;4910769;29;20195;-76
2022/09/05 12:22:04;;;;;;;3.87;2.60;;;;;;;24.68;42.09;97687.75;4910354;29;20799;-75
2022/09/05 12:25:19;;;;;;;2.57;1.50;;;;;;;24.65;41.87;97700.41;4910410;29;20220;-75
2022/09/05 12:28:14;;;;;;;3.57;2.30;;;;;;;24.55;41.68;97694.28;4910218;29;20195;-76
2022/09/05 12:31:12;;;;;;;1.63;1.43;;;;;;;24.06;42.52;97690.81;4910861;29;20243;-74
2022/09/05 12:34:09;;;;;;;2.70;1.63;;;;;;;23.91;42.86;97691.28;4910146;29;20271;-75
2022/09/05 12:37:02;;;;;;;3.13;2.03;;;;;;;24.16;41.43;97689.00;4910436;29;20279;-74
2022/09/05 12:40:14;;;;;;;2.17;1.70;;;;;;;24.74;40.54;97675.78;4909470;29;20188;-74
2022/09/05 12:43:04;;;;;;;2.30;2.10;;;;;;;24.55;40.13;97659.84;4910055;29;20216;-74
2022/09/05 12:46:08;;;;;;;2.87;2.40;;;;;;;24.89;40.76;97691.06;4909782;29;20218;-76
2022/09/05 12:48:58;;;;;;;3.90;2.27;;;;;;;24.43;41.74;97698.06;4895791;29;20216;-79
2022/09/05 12:51:40;;;;;;;9.83;4.17;;;;;;;23.99;42.63;97687.00;4894145;29;20332;-79
2022/09/05 12:54:27;;;;;;;4.60;3.13;;;;;;;23.90;43.91;97695.78;4909556;29;20209;-79
2022/09/05 12:57:09;;;;;;;4.27;2.33;;;;;;;23.87;43.72;97700.47;4910187;29;20190;-77
2022/09/05 13:00:01;;;;;;;2.73;2.40;;;;;;;23.56;43.97;97702.34;4909767;29;20195;-75
2022/09/05 13:02:56;;;;;;;6.50;3.53;;;;;;;23.78;42.74;97696.84;4907418;29;20189;-78
2022/09/05 13:05:53;;;;;;;2.20;2.00;;;;;;;24.06;42.18;97689.97;4910727;29;20588;-78
2022/09/05 13:08:24;;;;;;;5.07;1.87;;;;;;;24.07;42.34;97691.66;4909933;29;20205;-75
2022/09/05 13:10:56;;;;;;;2.20;2.00;;;;;;;24.18;42.25;97697.66;4910214;29;20197;-77
2022/09/05 13:13:49;;;;;;;3.47;1.70;;;;;;;24.01;42.66;97690.34;4910061;29;20187;-77
2022/09/05 13:16:42;;;;;;;4.93;1.70;;;;;;;23.90;44.03;97701.06;4909641;29;20183;-74
2022/09/05 13:19:32;;;;;;;1.70;1.53;;;;;;;23.70;43.58;97698.50;4908677;29;20761;-79
2022/09/05 13:22:01;;;;;;;5.30;1.90;;;;;;;23.65;43.26;97696.25;4894742;29;20195;-75
2022/09/05 13:24:37;;;;;;;1.60;1.50;;;;;;;23.90;43.69;97700.22;4909642;29;20624;-78
2022/09/05 13:27:13;;;;;;;1.83;1.73;;;;;;;23.99;42.32;97702.88;4910266;29;20202;-77